createdAt,value
2022-11-19T00:01:26.942Z,100095.59
2022-11-19T00:03:54.555Z,100096.56
2022-11-19T00:06:27.629Z,100109.22
2022-11-19T00:08:55.485Z,100100.31
2022-11-19T00:11:46.354Z,100105.09
2022-11-19T00:14:15.722Z,100113.47
2022-11-19T00:16:46.701Z,100106.38
2022-11-19T00:19:13.804Z,100103.69
2022-11-19T00:21:40.787Z,100109.09
2022-11-19T00:24:09.067Z,100113.78
2022-11-19T00:26:35.975Z,100108.56
2022-11-19T00:29:03.433Z,100113.31
2022-11-19T00:31:30.185Z,100117.00
2022-11-19T00:33:57.153Z,100117.84
2022-11-19T00:36:23.986Z,100118.22
2022-11-19T00:38:50.951Z,100119.75
2022-11-19T00:41:18.318Z,100122.59
2022-11-19T00:43:48.133Z,100120.59
2022-11-19T00:46:26.329Z,100130.34
2022-11-19T00:48:56.225Z,100131.91
2022-11-19T00:51:26.244Z,100133.38
2022-11-19T00:53:53.930Z,100133.69
2022-11-19T00:56:24.161Z,100138.78
2022-11-19T00:58:51.928Z,100135.06
2022-11-19T01:01:21.721Z,100130.53
2022-11-19T01:03:49.471Z,100133.03
2022-11-19T01:06:19.749Z,100126.44
2022-11-19T01:08:51.285Z,100132.50
2022-11-19T01:11:25.771Z,100139.91
2022-11-19T01:13:53.602Z,100131.66
2022-11-19T01:16:29.320Z,100133.50
2022-11-19T01:18:56.674Z,100134.66
2022-11-19T01:21:27.061Z,100135.97
2022-11-19T01:23:54.515Z,100133.28
2022-11-19T01:26:21.672Z,100145.38
2022-11-19T01:28:48.811Z,100138.00
2022-11-19T01:31:19.977Z,100137.31
2022-11-19T01:33:47.493Z,100145.84
2022-11-19T01:36:19.763Z,100142.28
2022-11-19T01:38:51.155Z,100145.66
2022-11-19T01:41:25.142Z,100147.44
2022-11-19T01:43:59.964Z,100144.88
2022-11-19T01:46:33.094Z,100147.22
2022-11-19T01:49:09.842Z,100153.94
2022-11-19T01:51:59.193Z,100155.06
2022-11-19T01:54:42.947Z,100154.19
2022-11-19T01:57:17.138Z,100158.94
2022-11-19T01:59:49.260Z,100151.50
2022-11-19T02:02:19.711Z,100156.53
2022-11-19T02:04:47.664Z,100154.00
2022-11-19T02:07:14.518Z,100166.47
2022-11-19T02:09:41.712Z,100166.91
2022-11-19T02:12:23.107Z,100159.56
2022-11-19T02:15:34.274Z,100170.31
2022-11-19T02:18:03.840Z,100169.47
2022-11-19T02:20:57.646Z,100168.53
2022-11-19T02:24:10.812Z,100174.75
2022-11-19T02:27:24.776Z,100174.16
2022-11-19T02:30:13.697Z,100173.47
2022-11-19T02:32:59.956Z,100170.13
2022-11-19T02:35:42.533Z,100171.81
2022-11-19T02:38:27.696Z,100170.19
2022-11-19T02:41:31.018Z,100175.72
2022-11-19T02:44:42.770Z,100179.63
2022-11-19T02:47:15.451Z,100172.56
2022-11-19T02:49:45.320Z,100181.88
2022-11-19T02:52:16.885Z,100181.19
2022-11-19T02:54:43.897Z,100178.16
2022-11-19T02:57:13.019Z,100178.69
2022-11-19T03:00:29.193Z,100182.06
2022-11-19T03:03:36.692Z,100185.44
2022-11-19T03:06:13.502Z,100184.28
2022-11-19T03:08:40.743Z,100180.91
2022-11-19T03:11:10.491Z,100186.47
2022-11-19T03:14:07.935Z,100184.06
2022-11-19T03:16:41.766Z,100183.38
2022-11-19T03:19:34.079Z,100186.06
2022-11-19T03:22:21.101Z,100182.69
2022-11-19T03:25:02.714Z,100193.47
2022-11-19T03:27:43.885Z,100189.41
2022-11-19T03:30:13.243Z,100189.09
2022-11-19T03:32:47.853Z,100193.97
2022-11-19T03:35:29.708Z,100194.41
2022-11-19T03:38:02.718Z,100197.09
2022-11-19T03:40:32.552Z,100201.81
2022-11-19T03:43:02.449Z,100202.13
2022-11-19T03:45:38.492Z,100201.06
2022-11-19T03:48:06.714Z,100203.97
2022-11-19T03:50:58.538Z,100207.34
2022-11-19T03:53:26.141Z,100203.81
2022-11-19T03:56:04.513Z,100210.03
2022-11-19T03:58:39.610Z,100212.19
2022-11-19T04:01:06.781Z,100219.66
2022-11-19T04:03:33.602Z,100213.25
2022-11-19T04:06:00.757Z,100216.19
2022-11-19T04:08:27.580Z,100221.88
2022-11-19T04:10:54.395Z,100221.41
2022-11-19T04:13:21.178Z,100223.94
2022-11-19T04:15:47.934Z,100225.78
2022-11-19T04:18:14.643Z,100236.94
2022-11-19T04:20:44.321Z,100232.88
2022-11-19T04:23:11.334Z,100233.16
2022-11-19T04:25:38.110Z,100239.03
2022-11-19T04:28:04.919Z,100244.78
2022-11-19T04:30:31.662Z,100252.72
2022-11-19T04:32:58.394Z,100255.88
2022-11-19T04:35:25.176Z,100256.88
2022-11-19T04:37:52.157Z,100251.78
2022-11-19T04:40:18.891Z,100249.63
2022-11-19T04:42:45.817Z,100241.25
2022-11-19T04:45:12.811Z,100240.56
2022-11-19T04:47:39.561Z,100247.94
2022-11-19T04:50:07.499Z,100243.94
2022-11-19T04:52:40.296Z,100247.94
2022-11-19T04:55:08.298Z,100252.72
2022-11-19T04:57:35.024Z,100253.00
2022-11-19T05:00:02.008Z,100267.34
2022-11-19T05:02:28.810Z,100266.47
2022-11-19T05:04:55.543Z,100274.41
2022-11-19T05:07:22.386Z,100270.88
2022-11-19T05:09:49.276Z,100265.72
2022-11-19T05:12:16.111Z,100270.41
2022-11-19T05:14:43.006Z,100272.13
2022-11-19T05:17:09.727Z,100273.59
2022-11-19T05:19:36.560Z,100271.88
2022-11-19T05:22:03.372Z,100276.03
2022-11-19T05:24:30.093Z,100279.63
2022-11-19T05:26:56.856Z,100288.00
2022-11-19T05:29:23.580Z,100285.31
2022-11-19T05:31:50.306Z,100285.63
2022-11-19T05:34:17.083Z,100287.94
2022-11-19T05:36:43.818Z,100285.38
2022-11-19T05:39:10.548Z,100288.25
2022-11-19T05:41:37.863Z,100294.31
2022-11-19T05:44:05.038Z,100305.38
2022-11-19T05:46:31.799Z,100308.06
2022-11-19T05:48:58.707Z,100310.28
2022-11-19T05:51:25.462Z,100311.53
2022-11-19T05:53:52.263Z,100314.22
2022-11-19T05:56:19.127Z,100318.75
2022-11-19T05:58:45.855Z,100319.59
2022-11-19T06:01:14.791Z,100321.59
2022-11-19T06:03:41.853Z,100318.06
2022-11-19T06:06:08.847Z,100317.66
2022-11-19T06:08:35.599Z,100312.84
2022-11-19T06:11:04.751Z,100302.41
2022-11-19T06:13:31.505Z,100296.31
2022-11-19T06:15:58.273Z,100309.63
2022-11-19T06:18:25.006Z,100314.19
2022-11-19T06:20:51.808Z,100322.84
2022-11-19T06:23:18.586Z,100320.59
2022-11-19T06:25:45.320Z,100321.63
2022-11-19T06:28:12.049Z,100318.59
2022-11-19T06:30:38.803Z,100331.91
2022-11-19T06:33:05.528Z,100339.41
2022-11-19T06:35:32.389Z,100331.34
2022-11-19T06:37:59.146Z,100330.22
2022-11-19T06:40:26.066Z,100325.38
2022-11-19T06:42:52.813Z,100328.94
2022-11-19T06:45:19.677Z,100328.78
2022-11-19T06:47:49.272Z,100324.53
2022-11-19T06:50:16.193Z,100314.31
2022-11-19T06:52:43.064Z,100320.00
2022-11-19T06:55:10.437Z,100312.94
2022-11-19T06:57:37.379Z,100318.91
2022-11-19T07:00:05.274Z,100324.31
2022-11-19T07:02:32.100Z,100322.75
2022-11-19T07:04:59.033Z,100331.97
2022-11-19T07:07:25.798Z,100327.56
2022-11-19T07:09:52.598Z,100327.56
2022-11-19T07:12:19.316Z,100326.59
2022-11-19T07:14:46.056Z,100331.97
2022-11-19T07:17:12.819Z,100342.44
2022-11-19T07:19:39.812Z,100335.34
2022-11-19T07:22:06.694Z,100341.56
2022-11-19T07:24:33.607Z,100343.28
2022-11-19T07:27:00.339Z,100334.66
2022-11-19T07:29:27.215Z,100334.09
2022-11-19T07:31:54.229Z,100343.06
2022-11-19T07:34:21.809Z,100334.56
2022-11-19T07:36:50.485Z,100338.31
2022-11-19T07:39:17.725Z,100332.38
2022-11-19T07:42:03.405Z,100344.81
2022-11-19T07:44:30.169Z,100349.63
2022-11-19T07:46:57.083Z,100352.50
2022-11-19T07:49:25.078Z,100350.34
2022-11-19T07:51:53.373Z,100353.06
2022-11-19T07:54:20.343Z,100358.09
2022-11-19T07:56:47.099Z,100358.72
2022-11-19T07:59:14.082Z,100348.94
2022-11-19T08:01:40.871Z,100352.19
2022-11-19T08:04:07.718Z,100350.75
2022-11-19T08:06:34.904Z,100364.19
2022-11-19T08:09:04.108Z,100372.25
2022-11-19T08:11:31.778Z,100377.94
2022-11-19T08:14:02.741Z,100384.84
2022-11-19T08:16:48.708Z,100383.28
2022-11-19T08:19:17.537Z,100375.63
2022-11-19T08:21:46.914Z,100378.31
2022-11-19T08:24:15.941Z,100378.22
2022-11-19T08:26:43.860Z,100378.06
2022-11-19T08:29:16.534Z,100371.88
2022-11-19T08:31:46.512Z,100379.63
2022-11-19T08:34:14.013Z,100392.63
2022-11-19T08:36:40.945Z,100389.25
2022-11-19T08:39:09.245Z,100399.03
2022-11-19T08:41:54.850Z,100395.31
2022-11-19T08:44:21.972Z,100409.78
2022-11-19T08:46:50.675Z,100412.19
2022-11-19T08:49:17.726Z,100403.94
2022-11-19T08:51:44.514Z,100398.84
2022-11-19T08:54:12.984Z,100404.47
2022-11-19T08:56:39.748Z,100406.47
2022-11-19T08:59:06.872Z,100406.47
2022-11-19T09:01:33.611Z,100406.56
2022-11-19T09:04:00.455Z,100399.88
2022-11-19T09:06:27.801Z,100398.44
2022-11-19T09:08:54.541Z,100397.28
2022-11-19T09:11:22.951Z,100402.38
2022-11-19T09:13:49.957Z,100403.22
2022-11-19T09:16:17.421Z,100409.41
2022-11-19T09:18:44.618Z,100405.41
2022-11-19T09:21:12.242Z,100409.34
2022-11-19T09:23:41.590Z,100408.06
2022-11-19T09:26:17.970Z,100422.34
2022-11-19T09:28:45.511Z,100418.69
2022-11-19T09:31:16.884Z,100419.91
2022-11-19T09:33:48.450Z,100425.44
2022-11-19T09:36:15.571Z,100427.53
2022-11-19T09:38:42.452Z,100424.25
2022-11-19T09:41:22.054Z,100429.72
2022-11-19T09:44:00.794Z,100433.50
2022-11-19T09:47:14.468Z,100429.72
2022-11-19T09:49:47.583Z,100435.19
2022-11-19T09:52:20.161Z,100438.28
2022-11-19T09:54:51.037Z,100436.91
2022-11-19T09:57:42.495Z,100444.56
2022-11-19T10:00:13.303Z,100454.50
2022-11-19T10:02:40.459Z,100459.91
2022-11-19T10:05:08.448Z,100455.25
2022-11-19T10:07:49.796Z,100457.22
2022-11-19T10:10:22.844Z,100458.28
2022-11-19T10:13:13.024Z,100463.69
2022-11-19T10:16:39.010Z,100462.84
2022-11-19T10:19:24.659Z,100467.88
2022-11-19T10:22:02.250Z,100462.78
2022-11-19T10:24:41.457Z,100465.03
2022-11-19T10:27:24.008Z,100471.94
2022-11-19T10:29:55.331Z,100473.47
2022-11-19T10:32:39.561Z,100469.66
2022-11-19T10:35:31.843Z,100470.00
2022-11-19T10:38:02.546Z,100460.09
2022-11-19T10:40:41.820Z,100467.72
2022-11-19T10:43:23.842Z,100467.06
2022-11-19T10:45:51.047Z,100475.56
2022-11-19T10:48:23.282Z,100470.41
2022-11-19T10:50:56.065Z,100461.34
2022-11-19T10:53:37.104Z,100453.25
2022-11-19T10:56:14.605Z,100443.69
2022-11-19T10:58:53.942Z,100442.88
2022-11-19T11:01:35.243Z,100434.31
2022-11-19T11:04:19.710Z,100434.38
2022-11-19T11:07:06.980Z,100427.34
2022-11-19T11:09:44.124Z,100426.84
2022-11-19T11:12:38.826Z,100427.91
2022-11-19T11:15:08.765Z,100415.09
2022-11-19T11:17:36.709Z,100407.16
2022-11-19T11:20:16.713Z,100408.03
2022-11-19T11:22:46.001Z,100402.28
2022-11-19T11:25:28.361Z,100400.78
2022-11-19T11:28:18.483Z,100398.88
2022-11-19T11:30:56.178Z,100399.03
2022-11-19T11:33:56.063Z,100390.78
2022-11-19T11:36:27.178Z,100392.47
2022-11-19T11:38:58.516Z,100399.56
2022-11-19T11:44:33.903Z,100389.91
2022-11-19T11:47:20.677Z,100377.16
2022-11-19T11:50:16.452Z,100372.06
2022-11-19T11:53:08.177Z,100368.88
2022-11-19T11:55:36.162Z,100380.53
2022-11-19T11:58:24.754Z,100380.53
2022-11-19T12:00:56.183Z,100377.31
2022-11-19T12:03:23.242Z,100384.22
2022-11-19T12:06:05.417Z,100371.09
2022-11-19T12:09:04.198Z,100375.13
2022-11-19T12:11:55.313Z,100373.94
2022-11-19T12:14:34.155Z,100367.38
2022-11-19T12:17:18.934Z,100376.16
2022-11-19T12:20:17.694Z,100373.16
2022-11-19T12:22:58.634Z,100368.06
2022-11-19T12:25:59.138Z,100373.16
2022-11-19T12:29:20.829Z,100362.34
2022-11-19T12:32:15.551Z,100361.34
2022-11-19T12:35:04.830Z,100369.25
2022-11-19T12:38:05.648Z,100373.50
2022-11-19T12:41:13.061Z,100369.47
2022-11-19T12:43:57.358Z,100361.22
2022-11-19T12:46:55.508Z,100369.16
2022-11-19T12:49:48.223Z,100356.50
2022-11-19T12:52:33.027Z,100350.94
2022-11-19T12:55:27.125Z,100346.91
2022-11-19T12:58:25.755Z,100341.69
2022-11-19T13:01:01.845Z,100339.88
2022-11-19T13:03:48.456Z,100324.13
2022-11-19T13:06:26.503Z,100314.22
2022-11-19T13:09:03.689Z,100311.53
2022-11-19T13:11:51.605Z,100299.69
2022-11-19T13:14:58.202Z,100302.06
2022-11-19T13:17:35.661Z,100298.38
2022-11-19T13:20:08.281Z,100287.59
2022-11-19T13:22:43.744Z,100291.97
2022-11-19T13:25:27.981Z,100283.84
2022-11-19T13:27:57.809Z,100283.19
2022-11-19T13:30:26.978Z,100280.69
2022-11-19T13:33:19.004Z,100268.84
2022-11-19T13:35:54.735Z,100284.88
2022-11-19T13:38:34.727Z,100272.75
2022-11-19T13:41:07.337Z,100281.88
2022-11-19T13:43:53.466Z,100278.31
2022-11-19T13:46:40.995Z,100274.75
2022-11-19T13:49:25.453Z,100271.06
2022-11-19T13:52:05.430Z,100271.06
2022-11-19T13:54:41.314Z,100265.81
2022-11-19T13:57:09.922Z,100269.19
2022-11-19T13:59:48.503Z,100276.63
2022-11-19T14:02:39.685Z,100269.38
2022-11-19T14:05:41.858Z,100280.84
2022-11-19T14:08:46.816Z,100273.41
2022-11-19T14:11:31.502Z,100270.88
2022-11-19T14:14:30.156Z,100270.72
2022-11-19T14:17:27.970Z,100271.75
2022-11-19T14:20:16.269Z,100270.03
2022-11-19T14:23:13.864Z,100267.50
2022-11-19T14:26:07.387Z,100279.50
2022-11-19T14:28:42.643Z,100275.75
2022-11-19T14:31:09.620Z,100278.47
2022-11-19T14:33:48.615Z,100273.72
2022-11-19T14:36:38.302Z,100270.34
2022-11-19T14:39:17.371Z,100269.84
2022-11-19T14:41:45.605Z,100269.31
2022-11-19T14:44:24.923Z,100267.28
2022-11-19T14:46:51.802Z,100263.91
2022-11-19T14:49:36.256Z,100263.88
2022-11-19T14:52:03.364Z,100260.50
2022-11-19T14:54:37.672Z,100269.25
2022-11-19T14:57:23.933Z,100271.94
2022-11-19T14:59:55.610Z,100267.84
2022-11-19T15:02:46.263Z,100276.91
2022-11-19T15:05:12.998Z,100272.03
2022-11-19T15:07:48.925Z,100267.28
2022-11-19T15:10:18.238Z,100262.69
2022-11-19T15:12:44.909Z,100270.56
2022-11-19T15:15:20.759Z,100268.69
2022-11-19T15:18:12.165Z,100265.59
2022-11-19T15:21:16.183Z,100264.88
2022-11-19T15:24:13.620Z,100260.16
2022-11-19T15:27:13.878Z,100258.78
2022-11-19T15:29:49.653Z,100259.38
2022-11-19T15:32:51.590Z,100252.25
2022-11-19T15:35:55.131Z,100255.59
2022-11-19T15:38:21.850Z,100245.97
2022-11-19T15:40:52.774Z,100250.84
2022-11-19T15:43:28.821Z,100244.22
2022-11-19T15:46:11.870Z,100250.06
2022-11-19T15:48:54.118Z,100247.84
2022-11-19T15:51:22.460Z,100245.47
2022-11-19T15:54:00.489Z,100249.63
2022-11-19T15:56:32.355Z,100246.41
2022-11-19T15:59:01.107Z,100248.41
2022-11-19T16:01:29.439Z,100254.25
2022-11-19T16:03:56.301Z,100248.34
2022-11-19T16:06:27.470Z,100244.97
2022-11-19T16:08:58.499Z,100240.91
2022-11-19T16:11:48.553Z,100249.25
2022-11-19T16:14:42.247Z,100238.81
2022-11-19T16:17:34.926Z,100241.66
2022-11-19T16:20:11.422Z,100243.66
2022-11-19T16:22:49.350Z,100245.50
2022-11-19T16:25:34.626Z,100239.28
2022-11-19T16:28:05.930Z,100239.41
2022-11-19T16:30:44.211Z,100246.03
2022-11-19T16:33:19.358Z,100239.03
2022-11-19T16:35:52.349Z,100231.66
2022-11-19T16:38:30.648Z,100227.66
2022-11-19T16:41:16.458Z,100228.88
2022-11-19T16:43:48.686Z,100225.72
2022-11-19T16:46:20.843Z,100235.19
2022-11-19T16:48:50.727Z,100231.81
2022-11-19T16:51:34.263Z,100231.81
2022-11-19T16:54:02.532Z,100232.63
2022-11-19T16:56:47.870Z,100239.50
2022-11-19T16:59:23.976Z,100238.59
2022-11-19T17:02:00.082Z,100232.50
2022-11-19T17:04:31.919Z,100244.56
2022-11-19T17:06:59.953Z,100239.66
2022-11-19T17:09:45.412Z,100236.19
2022-11-19T17:12:29.936Z,100245.72
2022-11-19T17:15:07.890Z,100257.94
2022-11-19T17:17:42.279Z,100251.28
2022-11-19T17:20:32.336Z,100259.28
2022-11-19T17:23:00.807Z,100266.81
2022-11-19T17:25:28.112Z,100260.19
2022-11-19T17:27:58.007Z,100253.56
2022-11-19T17:30:26.839Z,100258.25
2022-11-19T17:32:56.844Z,100248.81
2022-11-19T17:35:47.483Z,100245.72
2022-11-19T17:38:35.366Z,100241.34
2022-11-19T17:41:05.249Z,100238.66
2022-11-19T17:43:54.557Z,100239.78
2022-11-19T17:46:22.853Z,100243.47
2022-11-19T17:48:51.009Z,100246.19
2022-11-19T17:51:24.507Z,100249.00
2022-11-19T17:53:52.745Z,100242.66
2022-11-19T17:56:25.832Z,100240.94
2022-11-19T17:58:52.645Z,100241.78
2022-11-19T18:01:19.859Z,100240.09
2022-11-19T18:03:47.429Z,100239.41
2022-11-19T18:06:17.569Z,100237.56
2022-11-19T18:08:44.955Z,100237.56
2022-11-19T18:11:17.672Z,100238.53
2022-11-19T18:13:46.162Z,100236.03
2022-11-19T18:16:19.717Z,100235.31
2022-11-19T18:18:47.010Z,100235.47
2022-11-19T18:21:17.134Z,100236.31
2022-11-19T18:23:45.565Z,100235.47
2022-11-19T18:26:18.612Z,100241.00
2022-11-19T18:28:48.833Z,100236.47
2022-11-19T18:31:28.226Z,100236.47
2022-11-19T18:33:58.192Z,100230.09
2022-11-19T18:36:25.844Z,100230.09
2022-11-19T18:38:53.182Z,100229.09
2022-11-19T18:41:20.631Z,100226.41
2022-11-19T18:44:07.614Z,100216.66
2022-11-19T18:46:34.481Z,100224.72
2022-11-19T18:49:01.361Z,100224.56
2022-11-19T18:51:30.905Z,100226.41
2022-11-19T18:53:57.830Z,100214.81
2022-11-19T18:56:24.624Z,100221.03
2022-11-19T18:58:51.506Z,100218.34
2022-11-19T19:01:18.996Z,100206.75
2022-11-19T19:03:46.013Z,100207.59
2022-11-19T19:06:12.886Z,100202.22
2022-11-19T19:08:40.043Z,100204.75
2022-11-19T19:11:26.980Z,100198.53
2022-11-19T19:13:54.620Z,100193.84
2022-11-19T19:16:22.625Z,100200.22
2022-11-19T19:18:49.678Z,100201.91
2022-11-19T19:21:20.216Z,100190.00
2022-11-19T19:23:47.547Z,100184.78
2022-11-19T19:26:17.000Z,100185.47
2022-11-19T19:28:48.779Z,100179.94
2022-11-19T19:31:17.947Z,100177.13
2022-11-19T19:33:46.404Z,100181.50
2022-11-19T19:36:14.546Z,100188.69
2022-11-19T19:38:41.911Z,100190.25
2022-11-19T19:41:15.426Z,100187.56
2022-11-19T19:43:42.561Z,100187.25
2022-11-19T19:46:16.434Z,100183.72
2022-11-19T19:48:49.390Z,100197.31
2022-11-19T19:51:17.462Z,100186.28
2022-11-19T19:53:44.942Z,100184.56
2022-11-19T19:56:15.958Z,100179.88
2022-11-19T19:58:44.739Z,100192.34
2022-11-19T20:01:16.713Z,100192.34
2022-11-19T20:03:44.865Z,100176.22
2022-11-19T20:06:14.824Z,100177.91
2022-11-19T20:08:42.653Z,100168.13
2022-11-19T20:11:24.724Z,100165.59
2022-11-19T20:13:53.817Z,100163.06
2022-11-19T20:16:24.536Z,100159.53
2022-11-19T20:18:53.429Z,100158.22
2022-11-19T20:21:28.679Z,100156.84
2022-11-19T20:23:55.795Z,100155.69
2022-11-19T20:26:31.980Z,100155.00
2022-11-19T20:29:05.676Z,100158.69
2022-11-19T20:31:34.449Z,100153.16
2022-11-19T20:34:04.758Z,100145.78
2022-11-19T20:36:35.407Z,100145.25
2022-11-19T20:39:03.001Z,100138.84
2022-11-19T20:41:48.373Z,100142.09
2022-11-19T20:44:23.461Z,100134.50
2022-11-19T20:46:57.159Z,100127.13
2022-11-19T20:49:27.383Z,100135.34
2022-11-19T20:51:55.207Z,100131.47
2022-11-19T20:54:23.869Z,100135.88
2022-11-19T20:56:52.327Z,100133.47
2022-11-19T20:59:19.869Z,100125.41
2022-11-19T21:01:50.175Z,100135.19
2022-11-19T21:04:17.945Z,100127.81
2022-11-19T21:06:45.074Z,100129.34
2022-11-19T21:09:12.202Z,100135.59
2022-11-19T21:11:39.112Z,100132.72
2022-11-19T21:14:07.420Z,100129.88
2022-11-19T21:16:34.298Z,100129.88
2022-11-19T21:19:01.218Z,100128.19
2022-11-19T21:21:28.063Z,100121.81
2022-11-19T21:23:55.647Z,100124.34
2022-11-19T21:26:27.827Z,100116.28
2022-11-19T21:28:58.479Z,100115.44
2022-11-19T21:31:40.788Z,100114.75
2022-11-19T21:34:17.863Z,100113.75
2022-11-19T21:36:46.431Z,100112.44
2022-11-19T21:39:16.775Z,100111.75
2022-11-19T21:41:44.232Z,100098.97
2022-11-19T21:44:13.317Z,100100.00
2022-11-19T21:46:43.547Z,100107.75
2022-11-19T21:49:10.442Z,100100.53
2022-11-19T21:51:37.846Z,100094.47
2022-11-19T21:54:04.870Z,100094.28
2022-11-19T21:56:38.033Z,100087.25
2022-11-19T21:59:06.870Z,100084.56
2022-11-19T22:01:33.847Z,100086.56
2022-11-19T22:04:00.617Z,100089.94
2022-11-19T22:06:27.691Z,100079.47
2022-11-19T22:08:54.822Z,100083.72
2022-11-19T22:11:31.093Z,100082.84
2022-11-19T22:14:09.293Z,100073.41
2022-11-19T22:16:39.360Z,100070.88
2022-11-19T22:19:07.249Z,100063.34
2022-11-19T22:21:34.912Z,100059.97
2022-11-19T22:24:01.991Z,100059.97
2022-11-19T22:26:29.104Z,100052.59
2022-11-19T22:28:56.194Z,100045.22
2022-11-19T22:31:24.408Z,100050.28
2022-11-19T22:33:52.277Z,100052.97
2022-11-19T22:36:21.093Z,100044.91
2022-11-19T22:38:48.559Z,100035.84
2022-11-19T22:41:18.330Z,100039.22
2022-11-19T22:43:46.124Z,100032.16
2022-11-19T22:46:14.942Z,100029.44
2022-11-19T22:48:42.201Z,100027.44
2022-11-19T22:51:13.745Z,100012.69
2022-11-19T22:53:41.449Z,100018.25
2022-11-19T22:56:11.180Z,100011.16
2022-11-19T22:58:38.808Z,100008.31
2022-11-19T23:01:08.135Z,100004.78
2022-11-19T23:03:35.257Z,100005.78
2022-11-19T23:06:02.062Z,100005.78
2022-11-19T23:08:29.135Z,100004.63
2022-11-19T23:11:02.493Z,99999.22
2022-11-19T23:13:31.992Z,100005.16
2022-11-19T23:16:11.214Z,99997.22
2022-11-19T23:18:46.660Z,99997.22
2022-11-19T23:21:17.740Z,99998.09
2022-11-19T23:23:44.921Z,99990.84
2022-11-19T23:26:14.681Z,99997.41
2022-11-19T23:28:42.246Z,99995.94
2022-11-19T23:31:14.115Z,99993.25
2022-11-19T23:33:42.938Z,99976.75
2022-11-19T23:36:23.015Z,99981.63
2022-11-19T23:38:50.282Z,99982.16
2022-11-19T23:41:19.441Z,99972.25
2022-11-19T23:43:47.014Z,99979.03
2022-11-19T23:46:22.191Z,99977.19
2022-11-19T23:48:50.314Z,99978.69
2022-11-19T23:51:29.702Z,99977.84
2022-11-19T23:53:57.226Z,99982.06
2022-11-19T23:56:25.467Z,99980.91
2022-11-19T23:58:52.862Z,99975.53
